Time;durP1;ratioP1;P1;durP2;ratioP2;P2;SDS_P1;SDS_P2;PMS_P1;PMS_P2;Temp;Humidity;BMP_temperature;BMP_pressure;BME280_temperature;BME280_humidity;BME280_pressure;Samples;Min_cycle;Max_cycle;Signal;HPM_P1;HPM_P2
2023/10/16 00:00:29;;;;;;;6.50;2.40;;;4.00;99.90;;;;;;4936646;29;20122;-91
2023/10/16 00:02:59;;;;;;;9.88;2.03;;;3.90;99.90;;;;;;4935229;29;20065;-93
2023/10/16 00:05:33;;;;;;;3.42;1.75;;;4.00;99.90;;;;;;4938000;29;20086;-93
2023/10/16 00:08:05;;;;;;;13.07;4.72;;;4.00;99.90;;;;;;4940288;29;20035;-92
2023/10/16 00:10:32;;;;;;;7.07;2.97;;;4.00;99.90;;;;;;4938147;29;20482;-93
2023/10/16 00:13:04;;;;;;;3.10;1.50;;;4.00;99.90;;;;;;4936626;29;20027;-92
2023/10/16 00:15:33;;;;;;;4.97;1.52;;;4.00;99.90;;;;;;4936105;29;20560;-92
2023/10/16 00:18:00;;;;;;;2.83;1.53;;;4.00;99.90;;;;;;4936427;29;20028;-92
2023/10/16 00:20:26;;;;;;;5.82;2.28;;;4.00;99.90;;;;;;4936340;29;20028;-92
2023/10/16 00:22:51;;;;;;;6.90;2.60;;;4.00;99.90;;;;;;4937389;29;20024;-93
2023/10/16 00:25:21;;;;;;;7.20;2.30;;;4.00;99.90;;;;;;4938522;29;20055;-92
2023/10/16 00:27:47;;;;;;;4.40;2.10;;;3.90;99.90;;;;;;4950335;29;20028;-92
2023/10/16 00:30:12;;;;;;;5.05;2.80;;;3.80;99.90;;;;;;4936049;29;20028;-91
2023/10/16 00:32:38;;;;;;;5.40;2.47;;;3.70;99.90;;;;;;4936614;29;20028;-92
2023/10/16 00:35:04;;;;;;;7.30;2.65;;;3.70;99.90;;;;;;4936245;29;20032;-91
2023/10/16 00:37:33;;;;;;;4.40;2.50;;;3.70;99.90;;;;;;4951612;29;20656;-92
2023/10/16 00:39:59;;;;;;;6.95;2.72;;;3.60;99.90;;;;;;4938115;29;20032;-92
2023/10/16 00:42:24;;;;;;;5.05;3.00;;;3.70;99.90;;;;;;4941411;29;20042;-91
2023/10/16 00:44:56;;;;;;;6.95;3.33;;;3.70;99.90;;;;;;4956835;29;20062;-92
2023/10/16 00:47:24;;;;;;;4.78;3.30;;;3.60;99.90;;;;;;4938030;29;20493;-91
2023/10/16 00:49:50;;;;;;;6.65;2.75;;;3.60;99.90;;;;;;4937070;29;20035;-93
2023/10/16 00:52:18;;;;;;;5.00;2.63;;;3.60;99.90;;;;;;4937162;29;20498;-91
2023/10/16 00:54:46;;;;;;;4.30;2.08;;;3.60;99.90;;;;;;4937611;29;20030;-92
2023/10/16 00:57:13;;;;;;;6.97;2.72;;;3.60;99.90;;;;;;4937312;29;20040;-92
2023/10/16 00:59:40;;;;;;;5.10;2.33;;;3.50;99.90;;;;;;4939708;29;20027;-92
2023/10/16 01:02:14;;;;;;;12.15;3.85;;;3.50;99.90;;;;;;4944627;29;20027;-92
2023/10/16 01:04:41;;;;;;;10.00;3.88;;;3.50;99.90;;;;;;4938402;29;20083;-90
2023/10/16 01:07:07;;;;;;;6.57;3.72;;;3.40;99.90;;;;;;4953880;28;20074;-92
2023/10/16 01:09:36;;;;;;;10.68;2.78;;;3.30;99.90;;;;;;4955631;28;20035;-92
2023/10/16 01:12:06;;;;;;;8.98;4.57;;;3.30;99.90;;;;;;4955928;28;20500;-92
2023/10/16 01:14:35;;;;;;;9.93;4.13;;;3.20;99.90;;;;;;4955489;28;20031;-91
2023/10/16 01:17:01;;;;;;;10.57;4.60;;;3.20;99.90;;;;;;4970427;28;20047;-92
2023/10/16 01:19:28;;;;;;;12.52;4.90;;;3.20;99.90;;;;;;4970928;28;20050;-92
2023/10/16 01:21:54;;;;;;;9.98;4.38;;;3.10;99.90;;;;;;4954807;29;20388;-91
2023/10/16 01:24:21;;;;;;;10.07;4.47;;;3.10;99.90;;;;;;4956038;28;20102;-91
2023/10/16 01:26:48;;;;;;;10.63;4.90;;;3.10;99.90;;;;;;4954617;29;20043;-91
2023/10/16 01:29:15;;;;;;;9.68;3.83;;;3.10;99.90;;;;;;4970477;28;20118;-92
2023/10/16 01:31:44;;;;;;;7.60;3.70;;;3.10;99.90;;;;;;4955301;29;20027;-93
2023/10/16 01:34:12;;;;;;;7.93;3.40;;;3.20;99.90;;;;;;4955273;28;20027;-92
2023/10/16 01:36:45;;;;;;;7.35;3.03;;;3.20;99.90;;;;;;4976631;28;20023;-90
2023/10/16 01:39:47;;;;;;;6.05;3.03;;;3.20;99.90;;;;;;4970302;28;20023;-92
2023/10/16 01:42:00;;;;;;;7.50;2.92;;;3.20;99.90;;;;;;4964064;29;20038;-92
2023/10/16 01:44:28;;;;;;;4.55;2.47;;;3.20;99.90;;;;;;4957087;29;20028;-91
2023/10/16 01:46:54;;;;;;;9.25;4.97;;;3.10;99.90;;;;;;4956162;28;20058;-90
2023/10/16 01:49:21;;;;;;;6.85;3.58;;;3.20;99.90;;;;;;4955573;28;20027;-91
2023/10/16 01:51:48;;;;;;;4.47;2.40;;;3.20;99.90;;;;;;4954289;29;20055;-93
2023/10/16 01:54:14;;;;;;;16.27;3.70;;;3.20;99.90;;;;;;4955678;28;20050;-92
2023/10/16 01:56:41;;;;;;;6.13;3.05;;;3.10;99.90;;;;;;4955921;29;20024;-91
2023/10/16 01:59:07;;;;;;;6.90;2.67;;;3.10;99.90;;;;;;4955206;29;20031;-93
2023/10/16 02:01:33;;;;;;;7.85;3.60;;;3.00;99.90;;;;;;4957321;28;20484;-92
2023/10/16 02:04:01;;;;;;;5.95;3.80;;;3.10;99.90;;;;;;4961057;29;20482;-91
2023/10/16 02:06:26;;;;;;;7.45;3.42;;;3.10;99.90;;;;;;4960575;29;20039;-92
2023/10/16 02:08:54;;;;;;;6.68;3.38;;;3.00;99.90;;;;;;4960607;29;20019;-92
2023/10/16 02:11:19;;;;;;;7.47;3.28;;;2.90;99.90;;;;;;4959810;29;20118;-92
2023/10/16 02:13:45;;;;;;;4.47;2.10;;;2.90;99.90;;;;;;4960869;29;20027;-91
2023/10/16 02:16:15;;;;;;;4.57;2.47;;;2.90;99.90;;;;;;4958829;29;20019;-92
2023/10/16 02:18:41;;;;;;;11.30;2.85;;;2.90;99.90;;;;;;4956826;29;20034;-91
2023/10/16 02:21:11;;;;;;;5.35;3.10;;;2.90;99.90;;;;;;4956088;28;20126;-92
2023/10/16 02:23:43;;;;;;;4.88;2.40;;;2.90;99.90;;;;;;4971401;28;20047;-90
2023/10/16 02:26:09;;;;;;;7.88;2.85;;;2.90;99.90;;;;;;4963374;28;20045;-91
2023/10/16 02:28:40;;;;;;;5.93;2.95;;;2.90;99.90;;;;;;4975032;28;20007;-91
2023/10/16 02:31:14;;;;;;;7.82;3.15;;;2.90;99.90;;;;;;4970828;28;20071;-89
2023/10/16 02:33:50;;;;;;;4.57;2.38;;;2.90;99.90;;;;;;4959229;28;20028;-90
2023/10/16 02:36:16;;;;;;;9.27;3.65;;;2.90;99.90;;;;;;4959346;28;20492;-91
2023/10/16 02:38:42;;;;;;;7.65;3.88;;;2.80;99.90;;;;;;4961341;28;20024;-92
2023/10/16 02:41:09;;;;;;;9.55;4.40;;;2.80;99.90;;;;;;4957378;29;20122;-91
2023/10/16 02:43:37;;;;;;;6.93;3.55;;;2.70;99.90;;;;;;4956661;29;20027;-91
2023/10/16 02:46:04;;;;;;;11.00;3.97;;;2.70;99.90;;;;;;4956382;29;20230;-92
2023/10/16 02:48:30;;;;;;;8.10;4.60;;;2.70;99.90;;;;;;4964051;28;20039;-91
2023/10/16 02:50:57;;;;;;;9.13;3.85;;;2.70;99.90;;;;;;4937356;29;20038;-90
2023/10/16 02:53:25;;;;;;;6.60;3.28;;;2.60;99.90;;;;;;4937346;29;20051;-91
2023/10/16 02:56:04;;;;;;;5.95;3.00;;;2.60;99.90;;;;;;4938366;29;20023;-91
2023/10/16 02:58:30;;;;;;;6.38;3.78;;;2.60;99.90;;;;;;4937421;29;20490;-92
2023/10/16 03:00:57;;;;;;;8.50;4.53;;;2.60;99.90;;;;;;4941543;29;20030;-89
2023/10/16 03:03:31;;;;;;;8.27;4.20;;;2.60;99.90;;;;;;4943196;29;20031;-91
2023/10/16 03:05:59;;;;;;;9.70;3.70;;;2.60;99.90;;;;;;4944027;29;20039;-90
2023/10/16 03:08:31;;;;;;;6.63;3.65;;;2.50;99.90;;;;;;4941534;28;20023;-91
2023/10/16 03:10:59;;;;;;;8.63;3.78;;;2.50;99.90;;;;;;4937634;29;20086;-93
2023/10/16 03:13:25;;;;;;;7.50;3.60;;;2.50;99.90;;;;;;4937766;29;20023;-93
2023/10/16 03:16:05;;;;;;;10.02;3.80;;;2.50;99.90;;;;;;4937822;29;20028;-93
2023/10/16 03:18:32;;;;;;;7.55;3.53;;;2.40;99.90;;;;;;4939896;29;20108;-92
2023/10/16 03:23:44;;;;;;;9.32;3.78;;;2.40;99.90;;;;;;4939184;29;20049;-93
2023/10/16 03:26:30;;;;;;;9.00;3.50;;;2.30;99.90;;;;;;4937443;29;20039;-91
2023/10/16 03:28:57;;;;;;;7.00;3.00;;;2.30;99.90;;;;;;4936627;29;20028;-92
2023/10/16 03:31:23;;;;;;;7.47;3.15;;;2.30;99.90;;;;;;4937848;29;20051;-93
2023/10/16 03:33:50;;;;;;;5.18;2.80;;;2.30;99.90;;;;;;4936545;29;20028;-93
2023/10/16 03:36:17;;;;;;;5.60;2.65;;;2.30;99.90;;;;;;4936157;29;20034;-92
2023/10/16 03:38:43;;;;;;;5.80;2.40;;;2.30;99.90;;;;;;4937994;29;20028;-93
2023/10/16 03:41:19;;;;;;;5.85;2.63;;;2.30;99.90;;;;;;4939141;29;20505;-94
2023/10/16 03:43:46;;;;;;;4.10;2.10;;;2.30;99.90;;;;;;4938820;29;20106;-93
2023/10/16 03:46:15;;;;;;;4.80;2.28;;;2.30;99.90;;;;;;4937332;29;20040;-93
2023/10/16 03:48:41;;;;;;;6.80;3.17;;;2.30;99.90;;;;;;4937991;29;20067;-93
2023/10/16 03:51:07;;;;;;;4.45;2.55;;;2.30;99.90;;;;;;4940804;29;20030;-91
2023/10/16 03:53:37;;;;;;;7.45;3.38;;;2.20;99.90;;;;;;4941567;29;20023;-92
2023/10/16 03:56:04;;;;;;;10.10;3.10;;;2.20;99.90;;;;;;4937589;29;20031;-92
2023/10/16 03:58:35;;;;;;;13.57;3.53;;;2.20;99.90;;;;;;4939268;29;20030;-92
2023/10/16 04:01:10;;;;;;;11.05;3.83;;;2.20;99.90;;;;;;4938010;29;20082;-91
2023/10/16 04:03:50;;;;;;;11.73;3.72;;;2.20;99.90;;;;;;4937991;29;20126;-92
2023/10/16 04:06:20;;;;;;;11.80;3.85;;;2.20;99.90;;;;;;4939040;29;20103;-91
2023/10/16 04:08:50;;;;;;;11.57;4.10;;;2.20;99.90;;;;;;4940331;29;20063;-93
2023/10/16 04:11:17;;;;;;;9.50;3.80;;;2.20;99.90;;;;;;4938176;29;20036;-91
2023/10/16 04:13:48;;;;;;;8.05;3.42;;;2.10;99.90;;;;;;4936574;29;20028;-92
2023/10/16 04:21:54;;;;;;;27.23;5.82;;;2.00;99.90;;;;;;4939724;29;20397;-93
2023/10/16 04:32:20;;;;;;;9.88;5.13;;;2.00;99.90;;;;;;4938153;29;20039;-91
2023/10/16 04:34:52;;;;;;;12.25;4.90;;;2.00;99.90;;;;;;4936311;29;20438;-91
2023/10/16 04:53:07;;;;;;;28.83;5.15;;;1.90;99.90;;;;;;4956248;29;20520;-92
2023/10/16 05:00:57;;;;;;;13.25;5.60;;;1.90;99.90;;;;;;4956391;28;20046;-93
2023/10/16 05:03:25;;;;;;;10.95;4.10;;;1.90;99.90;;;;;;4956480;29;20031;-92
2023/10/16 05:06:04;;;;;;;21.17;5.60;;;2.00;99.90;;;;;;4961038;29;20046;-92
2023/10/16 05:08:34;;;;;;;11.60;5.15;;;1.90;99.90;;;;;;4960490;28;20015;-93
2023/10/16 05:14:19;;;;;;;14.70;4.97;;;1.90;99.90;;;;;;4964873;29;20042;-91
2023/10/16 05:22:03;;;;;;;18.50;5.55;;;1.80;99.90;;;;;;4960568;29;20032;-91
2023/10/16 06:14:13;;;;;;;48.08;8.45;;;1.70;99.90;;;;;;4956913;29;20067;-91
2023/10/16 06:16:53;;;;;;;31.05;8.00;;;1.70;99.90;;;;;;4958365;29;20039;-92
2023/10/16 06:19:19;;;;;;;18.27;5.95;;;1.60;99.90;;;;;;4955722;29;20540;-93
2023/10/16 06:21:47;;;;;;;15.68;4.70;;;1.70;99.90;;;;;;4957091;28;20107;-91
2023/10/16 06:24:28;;;;;;;9.70;4.15;;;1.60;99.90;;;;;;4956740;29;20050;-92
2023/10/16 06:26:57;;;;;;;11.90;4.32;;;1.60;99.90;;;;;;4955603;29;20066;-92
2023/10/16 06:29:34;;;;;;;10.85;4.07;;;1.70;99.90;;;;;;4957342;29;20042;-91
2023/10/16 06:32:06;;;;;;;11.35;3.97;;;1.70;99.90;;;;;;4957347;28;20832;-92
2023/10/16 06:34:33;;;;;;;6.95;3.40;;;1.70;99.90;;;;;;4952647;29;20015;-89
2023/10/16 06:37:05;;;;;;;9.55;4.90;;;1.70;99.90;;;;;;4962397;28;20027;-92
2023/10/16 06:39:35;;;;;;;11.68;3.92;;;1.70;99.90;;;;;;4960241;28;20028;-91
2023/10/16 06:42:02;;;;;;;5.47;3.22;;;1.70;99.90;;;;;;4948799;29;20043;-90
2023/10/16 06:44:28;;;;;;;8.45;3.70;;;1.70;99.90;;;;;;4960540;28;20035;-92
2023/10/16 06:46:58;;;;;;;7.28;3.28;;;1.70;99.90;;;;;;4960601;28;20031;-96
2023/10/16 06:49:35;;;;;;;8.80;3.50;;;1.70;99.90;;;;;;4945985;29;20054;-93
2023/10/16 06:52:04;;;;;;;6.32;3.35;;;1.60;99.90;;;;;;4947953;29;20035;-93
2023/10/16 06:54:37;;;;;;;8.57;4.00;;;1.60;99.90;;;;;;4964379;28;20024;-91
2023/10/16 06:57:15;;;;;;;9.52;4.20;;;1.60;99.90;;;;;;4946913;29;20020;-92
2023/10/16 06:59:42;;;;;;;10.10;3.72;;;1.50;99.90;;;;;;4962571;28;20046;-92
2023/10/16 07:02:15;;;;;;;9.90;3.67;;;1.50;99.90;;;;;;4963727;28;20492;-91
2023/10/16 07:04:42;;;;;;;6.22;3.60;;;1.50;99.90;;;;;;4964691;28;20037;-92
2023/10/16 07:07:14;;;;;;;7.68;3.95;;;1.50;99.90;;;;;;4957618;28;20058;-91
2023/10/16 07:09:49;;;;;;;12.50;3.28;;;1.50;99.90;;;;;;4956748;29;20034;-89
2023/10/16 07:12:16;;;;;;;7.15;3.00;;;1.50;99.90;;;;;;4957794;28;20523;-91
2023/10/16 07:14:44;;;;;;;6.97;2.88;;;1.50;99.90;;;;;;4967636;29;20109;-93
2023/10/16 07:17:13;;;;;;;15.90;4.95;;;1.50;99.90;;;;;;4948027;28;20031;-91
2023/10/16 07:19:41;;;;;;;8.95;3.70;;;1.70;99.90;;;;;;4943727;29;20067;-91
2023/10/16 07:22:10;;;;;;;8.02;3.00;;;1.90;99.90;;;;;;4956988;28;20024;-91
2023/10/16 07:24:38;;;;;;;5.68;3.10;;;2.10;99.90;;;;;;4957427;28;20045;-90
2023/10/16 07:27:12;;;;;;;8.68;2.78;;;2.20;99.90;;;;;;4950818;29;20055;-92
2023/10/16 07:29:41;;;;;;;6.28;2.83;;;2.40;99.90;;;;;;4953827;29;20035;-92
2023/10/16 07:32:08;;;;;;;8.13;3.00;;;2.50;99.90;;;;;;4954831;29;20433;-91
2023/10/16 07:34:38;;;;;;;7.05;3.30;;;2.50;99.90;;;;;;4955014;29;20134;-92
2023/10/16 07:37:07;;;;;;;4.80;2.78;;;2.60;99.90;;;;;;4958073;28;20035;-93
2023/10/16 07:39:36;;;;;;;4.93;2.25;;;2.70;99.90;;;;;;4957466;28;20029;-93
2023/10/16 07:42:02;;;;;;;7.55;2.55;;;2.90;99.90;;;;;;4956290;29;20031;-94
2023/10/16 07:44:28;;;;;;;6.45;2.15;;;3.00;99.90;;;;;;4960089;29;20481;-94
2023/10/16 07:46:54;;;;;;;5.10;2.33;;;3.00;99.90;;;;;;4959507;28;20547;-93
2023/10/16 07:49:25;;;;;;;5.57;3.30;;;3.10;99.90;;;;;;4964786;28;20031;-92
2023/10/16 07:51:52;;;;;;;5.57;3.42;;;3.20;99.90;;;;;;4963597;29;20031;-93
2023/10/16 07:54:20;;;;;;;5.45;2.30;;;3.30;99.90;;;;;;4957644;29;20105;-95
2023/10/16 07:56:49;;;;;;;6.95;2.53;;;3.20;99.90;;;;;;4955858;29;20031;-90
2023/10/16 07:59:20;;;;;;;4.82;2.45;;;3.20;99.90;;;;;;4959458;28;20099;-93
2023/10/16 08:01:52;;;;;;;4.18;2.17;;;3.20;99.90;;;;;;4956810;28;20311;-93
2023/10/16 08:06:52;;;;;;;7.68;2.67;;;3.20;99.90;;;;;;4957284;28;20082;-91
2023/10/16 08:11:58;;;;;;;4.53;2.70;;;3.30;99.90;;;;;;4958273;29;20114;-92
2023/10/16 08:14:28;;;;;;;7.07;2.95;;;3.40;99.90;;;;;;4955694;28;20106;-92
2023/10/16 08:17:14;;;;;;;4.15;2.30;;;3.40;99.90;;;;;;4954688;28;20028;-93
2023/10/16 08:19:40;;;;;;;5.88;2.45;;;3.50;99.90;;;;;;4947562;29;20039;-93
2023/10/16 08:22:09;;;;;;;5.32;3.13;;;3.60;99.90;;;;;;4955560;28;20118;-93
2023/10/16 08:24:43;;;;;;;9.45;3.30;;;3.70;99.90;;;;;;4955735;28;20050;-93
2023/10/16 08:27:19;;;;;;;8.27;2.70;;;3.70;99.90;;;;;;4948335;28;20043;-93
2023/10/16 08:29:53;;;;;;;9.23;2.65;;;3.80;99.90;;;;;;4953574;28;20030;-94
2023/10/16 08:35:10;;;;;;;5.05;2.88;;;3.90;99.90;;;;;;4941987;29;20105;-93
2023/10/16 08:37:41;;;;;;;3.67;2.30;;;4.00;99.90;;;;;;4949999;28;20035;-93
2023/10/16 08:40:19;;;;;;;6.65;2.85;;;4.00;99.90;;;;;;4955275;29;20023;-93
2023/10/16 08:42:51;;;;;;;5.38;2.72;;;4.10;99.90;;;;;;4952089;29;20038;-93
2023/10/16 08:45:24;;;;;;;5.05;2.78;;;4.20;99.90;;;;;;4955779;28;20038;-92
2023/10/16 08:47:51;;;;;;;8.23;2.30;;;4.40;99.90;;;;;;4950731;28;20501;-93
2023/10/16 08:50:20;;;;;;;4.82;2.53;;;4.50;99.90;;;;;;4954581;29;20043;-94
2023/10/16 08:52:51;;;;;;;5.20;2.50;;;4.70;99.90;;;;;;4951930;29;20031;-95
2023/10/16 08:55:17;;;;;;;3.53;2.35;;;4.90;99.90;;;;;;4947100;29;20026;-94
2023/10/16 08:57:45;;;;;;;3.20;2.00;;;5.10;99.90;;;;;;4953005;28;20040;-95
2023/10/16 09:00:23;;;;;;;3.22;1.80;;;5.30;99.90;;;;;;4951660;29;20062;-93
2023/10/16 09:02:53;;;;;;;4.80;2.10;;;5.50;99.90;;;;;;4954476;29;20027;-94
2023/10/16 09:05:20;;;;;;;5.75;2.20;;;5.70;99.90;;;;;;4958183;29;20059;-95
2023/10/16 09:07:48;;;;;;;4.93;1.83;;;5.80;99.90;;;;;;4952669;29;20035;-95
2023/10/16 09:10:15;;;;;;;5.55;2.80;;;6.00;99.90;;;;;;4958058;28;20024;-95
2023/10/16 09:12:55;;;;;;;2.80;2.15;;;6.10;99.90;;;;;;4955678;29;20186;-95
2023/10/16 09:15:26;;;;;;;4.50;2.08;;;6.20;99.90;;;;;;4964472;29;20136;-93
2023/10/16 09:17:56;;;;;;;4.60;1.95;;;6.30;99.90;;;;;;4962149;28;20027;-93
2023/10/16 09:20:32;;;;;;;4.38;1.98;;;6.30;99.90;;;;;;4968889;29;20063;-95
2023/10/16 09:23:02;;;;;;;6.10;1.95;;;6.30;99.90;;;;;;4961767;29;20032;-95
2023/10/16 09:25:31;;;;;;;9.00;3.80;;;6.30;99.90;;;;;;4967246;29;20481;-94
2023/10/16 09:27:57;;;;;;;5.57;2.08;;;6.40;99.90;;;;;;4976883;28;20039;-93
2023/10/16 09:30:23;;;;;;;5.10;2.10;;;6.50;99.90;;;;;;4976386;29;20132;-90
2023/10/16 09:32:51;;;;;;;5.00;2.00;;;6.60;99.90;;;;;;4969625;29;20176;-95
2023/10/16 09:35:26;;;;;;;7.13;1.73;;;6.70;99.90;;;;;;4977613;28;20015;-94
2023/10/16 09:37:52;;;;;;;5.43;1.83;;;6.70;99.90;;;;;;4965382;28;20019;-95
2023/10/16 09:43:06;;;;;;;7.00;2.05;;;6.90;99.90;;;;;;4953982;29;20042;-94
2023/10/16 09:45:36;;;;;;;5.75;1.73;;;7.00;99.90;;;;;;4955291;29;20050;-96
2023/10/16 09:48:08;;;;;;;3.40;1.70;;;7.00;99.90;;;;;;4954757;29;20047;-94
2023/10/16 09:50:38;;;;;;;6.32;1.70;;;7.00;99.90;;;;;;4956511;28;20117;-95
2023/10/16 09:53:09;;;;;;;6.67;1.80;;;7.10;99.90;;;;;;4953759;29;20127;-96
2023/10/16 09:55:39;;;;;;;4.47;2.08;;;7.10;99.90;;;;;;4955998;29;20287;-95
2023/10/16 09:58:11;;;;;;;4.77;1.87;;;7.20;99.90;;;;;;4944516;29;20020;-95
2023/10/16 10:00:51;;;;;;;3.13;2.10;;;7.30;99.90;;;;;;4955389;29;20027;-94
2023/10/16 10:03:21;;;;;;;5.75;2.25;;;7.40;99.90;;;;;;4959316;29;20042;-96
2023/10/16 10:06:08;;;;;;;3.38;1.50;;;7.60;99.90;;;;;;4963208;28;20036;-96
2023/10/16 10:11:44;;;;;;;10.10;1.70;;;7.90;99.90;;;;;;4955361;28;20027;-95
2023/10/16 10:16:56;;;;;;;3.95;1.63;;;8.20;99.90;;;;;;4952215;29;20015;-96
2023/10/16 10:19:36;;;;;;;7.40;1.90;;;8.40;99.90;;;;;;4966890;28;20532;-94
2023/10/16 10:22:18;;;;;;;5.43;2.00;;;8.50;99.90;;;;;;4952095;29;20034;-94
2023/10/16 10:24:53;;;;;;;8.57;2.10;;;8.60;99.90;;;;;;4955548;29;20098;-95
2023/10/16 10:27:19;;;;;;;9.27;2.30;;;8.60;99.90;;;;;;4952657;28;20035;-95
2023/10/16 10:29:49;;;;;;;9.98;3.10;;;8.70;99.90;;;;;;4955359;28;20036;-96
2023/10/16 10:32:14;;;;;;;11.98;3.50;;;8.80;99.90;;;;;;4952979;29;20031;-94
2023/10/16 10:34:43;;;;;;;9.02;3.17;;;8.80;99.90;;;;;;4954082;29;20032;-93
2023/10/16 10:37:47;;;;;;;9.65;3.47;;;8.90;99.90;;;;;;4955515;29;20054;-93
2023/10/16 10:40:18;;;;;;;9.27;2.53;;;9.00;99.90;;;;;;4957736;28;20029;-94
2023/10/16 10:42:49;;;;;;;5.70;2.40;;;9.00;99.90;;;;;;4954811;29;20019;-94
2023/10/16 10:45:31;;;;;;;8.23;2.92;;;9.00;99.90;;;;;;4967585;28;20075;-93
2023/10/16 10:48:06;;;;;;;8.65;2.97;;;9.10;99.90;;;;;;4992734;28;20047;-93
2023/10/16 10:50:34;;;;;;;5.20;2.50;;;9.10;99.90;;;;;;4963626;29;20062;-94
2023/10/16 10:53:03;;;;;;;11.15;2.40;;;9.20;99.90;;;;;;4955312;29;20051;-92
2023/10/16 10:55:29;;;;;;;8.60;2.40;;;9.30;99.90;;;;;;4960320;28;20162;-92
2023/10/16 10:57:58;;;;;;;8.45;2.35;;;9.40;99.90;;;;;;4955224;29;20501;-94
2023/10/16 11:05:30;;;;;;;5.28;2.10;;;9.50;99.90;;;;;;4955759;29;20035;-92
2023/10/16 11:35:17;;;;;;;4.38;1.52;;;10.20;99.90;;;;;;5124414;27;20161;-93
2023/10/16 11:37:50;;;;;;;4.28;1.20;;;10.30;99.90;;;;;;5091063;28;20028;-91
2023/10/16 11:40:18;;;;;;;2.72;1.20;;;10.40;99.90;;;;;;5092282;28;20049;-93
2023/10/16 11:42:45;;;;;;;4.47;1.38;;;10.60;99.90;;;;;;5091887;28;20537;-93
2023/10/16 11:45:18;;;;;;;1.40;0.98;;;10.70;99.90;;;;;;5092802;28;20074;-93
2023/10/16 11:47:44;;;;;;;5.68;1.00;;;10.90;99.90;;;;;;5093768;28;20035;-93
2023/10/16 11:50:17;;;;;;;3.08;1.20;;;11.10;99.90;;;;;;5090724;28;20054;-93
2023/10/16 11:52:43;;;;;;;2.85;1.20;;;11.30;99.90;;;;;;5091618;28;20070;-92
2023/10/16 11:55:09;;;;;;;3.42;1.30;;;11.60;99.90;;;;;;5091811;28;20028;-93
2023/10/16 11:57:35;;;;;;;4.07;1.00;;;11.70;99.90;;;;;;5091503;28;20020;-94
2023/10/16 12:00:15;;;;;;;5.18;1.17;;;11.90;99.90;;;;;;5097046;28;20095;-90
2023/10/16 12:02:46;;;;;;;3.33;1.20;;;12.00;99.90;;;;;;5080991;28;20048;-92
2023/10/16 12:05:14;;;;;;;;;;;12.10;99.90;;;;;;5076166;28;20039;-92
2023/10/16 12:07:43;;;;;;;1.52;1.20;;;12.10;99.90;;;;;;5080941;28;19912;-93
2023/10/16 12:10:15;;;;;;;4.22;1.27;;;12.20;99.90;;;;;;5091599;28;20040;-93
2023/10/16 12:12:49;;;;;;;4.65;1.02;;;12.30;99.90;;;;;;5081714;28;20021;-92
2023/10/16 12:15:15;;;;;;;3.83;1.00;;;12.50;99.90;;;;;;5082160;28;20032;-94
2023/10/16 12:17:43;;;;;;;2.33;1.00;;;12.60;99.90;;;;;;5080954;28;20017;-92
2023/10/16 12:20:11;;;;;;;5.55;1.33;;;12.70;99.90;;;;;;5085246;28;20062;-91
2023/10/16 12:22:39;;;;;;;2.40;0.90;;;12.80;99.90;;;;;;5078270;28;20040;-92
2023/10/16 12:25:09;;;;;;;3.80;0.95;;;12.90;99.90;;;;;;5085730;28;20033;-93
2023/10/16 12:27:36;;;;;;;3.07;1.10;;;13.00;99.90;;;;;;5080363;28;20032;-93
2023/10/16 12:30:04;;;;;;;2.35;0.90;;;13.20;99.90;;;;;;5081593;28;20323;-92
2023/10/16 12:32:29;;;;;;;3.10;0.88;;;13.30;99.90;;;;;;5080230;28;20039;-92
2023/10/16 12:34:58;;;;;;;4.65;1.40;;;13.30;99.90;;;;;;5100749;28;20035;-94
2023/10/16 12:37:23;;;;;;;3.72;1.10;;;13.40;99.70;;;;;;5101829;28;20012;-94
2023/10/16 12:39:52;;;;;;;4.07;1.10;;;13.40;99.10;;;;;;5103072;28;20024;-92
2023/10/16 12:42:24;;;;;;;3.60;0.88;;;13.40;97.70;;;;;;5100935;28;20107;-91
2023/10/16 12:44:50;;;;;;;2.92;0.75;;;13.50;97.10;;;;;;5118016;27;20028;-93
2023/10/16 12:47:16;;;;;;;1.58;0.80;;;13.60;96.40;;;;;;5101310;28;20292;-91
2023/10/16 12:49:42;;;;;;;2.40;0.80;;;13.60;95.70;;;;;;5103589;28;20056;-91
2023/10/16 12:52:10;;;;;;;2.50;0.95;;;13.70;95.50;;;;;;5105743;28;20013;-91
2023/10/16 12:54:43;;;;;;;5.32;0.75;;;13.90;95.30;;;;;;5104974;28;20027;-90
2023/10/16 12:57:09;;;;;;;3.78;1.00;;;14.00;94.80;;;;;;5107657;28;20032;-91
2023/10/16 12:59:36;;;;;;;2.58;0.80;;;14.20;93.80;;;;;;5086168;28;20032;-93
2023/10/16 13:02:04;;;;;;;2.58;0.90;;;14.20;93.00;;;;;;5086593;28;20028;-91
2023/10/16 13:04:33;;;;;;;3.38;1.23;;;14.20;92.30;;;;;;5087075;28;20036;-92
2023/10/16 13:07:02;;;;;;;2.17;0.70;;;14.20;92.00;;;;;;5088490;28;20024;-92
2023/10/16 13:09:30;;;;;;;2.13;0.82;;;14.30;91.60;;;;;;5083492;28;20282;-94
2023/10/16 13:11:56;;;;;;;4.05;0.95;;;14.20;91.20;;;;;;5079531;28;20637;-91
2023/10/16 13:14:24;;;;;;;1.80;0.70;;;14.30;91.20;;;;;;5087903;28;20029;-90
2023/10/16 13:16:56;;;;;;;1.25;0.60;;;14.40;90.30;;;;;;5088201;28;20048;-92
2023/10/16 13:19:27;;;;;;;2.70;1.00;;;14.40;89.40;;;;;;5113259;28;20025;-93
2023/10/16 13:21:53;;;;;;;1.83;0.82;;;14.50;88.30;;;;;;5091985;28;20012;-93
2023/10/16 13:24:23;;;;;;;5.35;1.00;;;14.50;88.40;;;;;;5085978;28;20122;-93
2023/10/16 13:26:52;;;;;;;2.75;1.10;;;14.60;86.80;;;;;;5094280;28;20023;-93
2023/10/16 13:29:18;;;;;;;4.00;1.10;;;14.60;86.30;;;;;;5080559;28;20016;-91
2023/10/16 13:31:48;;;;;;;3.17;1.30;;;14.70;86.70;;;;;;5103103;28;20398;-91
2023/10/16 13:34:15;;;;;;;3.20;0.70;;;14.90;86.50;;;;;;5090791;28;20085;-92
2023/10/16 13:36:53;;;;;;;2.70;0.90;;;15.10;85.80;;;;;;5110406;28;20036;-92
2023/10/16 13:39:19;;;;;;;2.28;0.90;;;15.40;85.40;;;;;;5088040;28;20021;-92
2023/10/16 13:41:51;;;;;;;2.67;0.90;;;15.70;85.10;;;;;;5075785;28;20076;-92
2023/10/16 13:44:19;;;;;;;2.80;1.75;;;15.90;84.20;;;;;;5074497;28;20501;-91
2023/10/16 13:46:46;;;;;;;5.13;1.27;;;16.00;83.20;;;;;;5076115;28;20111;-93
2023/10/16 13:49:14;;;;;;;2.78;1.38;;;16.10;81.30;;;;;;5095216;28;20024;-91
2023/10/16 13:51:41;;;;;;;4.03;1.40;;;16.00;80.50;;;;;;5094242;28;20028;-93
2023/10/16 13:54:11;;;;;;;4.32;1.52;;;16.10;80.20;;;;;;5094634;28;20023;-92
2023/10/16 13:56:38;;;;;;;5.82;1.88;;;16.10;79.90;;;;;;5082699;28;20027;-93
2023/10/16 13:59:05;;;;;;;5.30;2.30;;;16.00;79.10;;;;;;5089042;28;20032;-92
2023/10/16 14:01:32;;;;;;;6.32;2.20;;;15.90;79.20;;;;;;5099122;28;20020;-93
2023/10/16 14:03:58;;;;;;;6.95;2.65;;;16.00;78.90;;;;;;5098851;28;20036;-93
2023/10/16 14:06:27;;;;;;;7.60;2.97;;;16.00;78.40;;;;;;5097222;28;20016;-93
2023/10/16 14:08:53;;;;;;;6.75;3.00;;;16.10;78.20;;;;;;5097466;28;20062;-92
2023/10/16 14:11:28;;;;;;;8.98;3.20;;;16.30;77.80;;;;;;5096014;28;20016;-92
2023/10/16 14:13:54;;;;;;;9.35;3.30;;;16.50;76.50;;;;;;5095582;28;20032;-93
2023/10/16 14:16:20;;;;;;;7.55;3.10;;;16.60;74.90;;;;;;5097082;28;20031;-92
2023/10/16 14:18:46;;;;;;;7.05;3.10;;;16.60;74.20;;;;;;5096835;28;20088;-92
2023/10/16 14:21:13;;;;;;;6.88;3.38;;;16.70;73.70;;;;;;5097767;28;20073;-92
2023/10/16 14:23:40;;;;;;;6.65;3.13;;;16.70;73.30;;;;;;5097631;28;20062;-93
2023/10/16 14:26:20;;;;;;;6.00;3.08;;;16.60;72.90;;;;;;5103736;28;20040;-92
2023/10/16 14:28:54;;;;;;;5.95;3.10;;;16.50;71.90;;;;;;5109811;28;20058;-91
2023/10/16 14:31:21;;;;;;;6.72;2.80;;;16.40;72.30;;;;;;5108705;28;20032;-92
2023/10/16 14:33:49;;;;;;;5.97;2.78;;;16.60;72.40;;;;;;5106334;28;20064;-92
2023/10/16 14:36:16;;;;;;;6.10;2.95;;;16.60;71.80;;;;;;5096373;28;20021;-93
2023/10/16 14:38:43;;;;;;;7.88;2.72;;;16.60;71.30;;;;;;5094455;28;20086;-93
2023/10/16 14:41:13;;;;;;;6.22;2.83;;;16.50;71.10;;;;;;5099166;28;20027;-92
2023/10/16 14:43:39;;;;;;;6.20;2.60;;;16.30;71.20;;;;;;5094678;28;20043;-92
2023/10/16 14:46:12;;;;;;;5.70;2.30;;;16.20;71.50;;;;;;5095864;28;20027;-91
2023/10/16 14:48:42;;;;;;;4.93;2.00;;;16.30;71.60;;;;;;5098047;28;20032;-89
2023/10/16 14:51:15;;;;;;;2.97;2.07;;;16.30;71.60;;;;;;5092229;28;20028;-91
2023/10/16 14:53:43;;;;;;;3.97;2.58;;;16.40;71.60;;;;;;5096909;28;20028;-92
2023/10/16 14:56:09;;;;;;;6.03;1.65;;;16.60;71.50;;;;;;5084329;28;20020;-91
2023/10/16 14:58:34;;;;;;;8.38;1.75;;;16.80;70.90;;;;;;5105918;28;20059;-91
2023/10/16 15:01:09;;;;;;;4.65;1.83;;;16.90;70.50;;;;;;5077650;28;20032;-91
2023/10/16 15:03:38;;;;;;;2.35;1.35;;;17.10;70.40;;;;;;5102009;28;20032;-91
2023/10/16 15:06:04;;;;;;;4.20;1.40;;;17.30;69.60;;;;;;5084777;28;20021;-90
2023/10/16 15:08:30;;;;;;;3.97;1.30;;;17.50;68.80;;;;;;5075705;28;20048;-91
2023/10/16 15:10:58;;;;;;;2.75;1.10;;;17.50;68.40;;;;;;5075353;28;20028;-92
2023/10/16 15:13:27;;;;;;;5.38;1.52;;;17.60;68.10;;;;;;5081419;28;20020;-93
2023/10/16 15:15:55;;;;;;;2.53;1.08;;;17.70;67.70;;;;;;5088202;28;20519;-91
2023/10/16 15:18:23;;;;;;;2.10;1.20;;;17.90;67.20;;;;;;5104697;28;20157;-90
2023/10/16 15:20:49;;;;;;;3.15;1.23;;;17.90;67.10;;;;;;5083479;28;20020;-92
2023/10/16 15:23:15;;;;;;;4.72;1.08;;;17.80;66.80;;;;;;5083968;28;20040;-90
2023/10/16 15:25:42;;;;;;;6.22;1.58;;;17.70;67.00;;;;;;5077624;28;20033;-92
2023/10/16 15:28:09;;;;;;;2.88;1.20;;;17.70;67.40;;;;;;5084258;28;20024;-92